Time;durP1;ratioP1;P1;durP2;ratioP2;P2;SDS_P1;SDS_P2;PMS_P1;PMS_P2;Temp;Humidity;BMP_temperature;BMP_pressure;BME280_temperature;BME280_humidity;BME280_pressure;Samples;Min_cycle;Max_cycle;Signal;HPM_P1;HPM_P2
2023/10/15 00:01:51;;;;;;;3.60;2.10;;;12.80;99.90;;;;;;4995920;28;20204;-67
2023/10/15 00:04:17;;;;;;;12.53;3.30;;;12.80;99.90;;;;;;4999859;28;20432;-67
2023/10/15 00:06:42;;;;;;;5.63;3.00;;;12.70;99.90;;;;;;4999051;28;22726;-67
2023/10/15 00:09:09;;;;;;;5.30;2.50;;;12.80;99.90;;;;;;4993125;28;20650;-67
2023/10/15 00:11:35;;;;;;;4.77;2.73;;;12.70;99.90;;;;;;4998759;28;20277;-67
2023/10/15 00:14:03;;;;;;;5.50;2.20;;;12.70;99.90;;;;;;4989671;28;20527;-67
2023/10/15 00:16:29;;;;;;;3.90;2.07;;;12.80;99.90;;;;;;4996377;28;20587;-67
2023/10/15 00:18:55;;;;;;;4.20;2.83;;;12.70;99.90;;;;;;4998078;28;20827;-67
2023/10/15 00:21:21;;;;;;;6.00;2.87;;;12.70;99.90;;;;;;4993690;28;20421;-67
2023/10/15 00:23:47;;;;;;;4.57;2.77;;;12.80;99.90;;;;;;4992965;28;20464;-67
2023/10/15 00:26:15;;;;;;;9.10;2.57;;;12.80;99.90;;;;;;4996858;28;20639;-67
2023/10/15 00:28:45;;;;;;;7.83;2.90;;;12.90;99.90;;;;;;4997466;28;20565;-67
2023/10/15 00:31:13;;;;;;;4.30;2.77;;;12.90;99.90;;;;;;4993303;28;20437;-67
2023/10/15 00:33:42;;;;;;;6.73;2.70;;;12.80;99.90;;;;;;4996154;28;20452;-67
2023/10/15 00:36:12;;;;;;;10.27;2.80;;;12.80;99.90;;;;;;4998020;28;20484;-67
2023/10/15 00:38:38;;;;;;;6.80;2.33;;;12.90;99.90;;;;;;4998524;28;20431;-67
2023/10/15 00:41:09;;;;;;;5.50;2.63;;;12.90;99.90;;;;;;4998614;28;20988;-67
2023/10/15 00:43:35;;;;;;;12.40;3.00;;;12.90;99.90;;;;;;4997607;28;20340;-67
2023/10/15 00:46:03;;;;;;;5.20;2.73;;;13.00;99.90;;;;;;4992409;28;20460;-68
2023/10/15 00:48:36;;;;;;;4.23;2.17;;;13.00;99.90;;;;;;4994476;28;20463;-68
2023/10/15 00:51:14;;;;;;;7.77;3.13;;;13.10;99.90;;;;;;4992821;28;20894;-68
2023/10/15 00:53:50;;;;;;;5.63;2.50;;;13.10;99.90;;;;;;4997418;28;20819;-68
2023/10/15 00:56:22;;;;;;;4.80;2.30;;;13.10;99.90;;;;;;4998289;28;20496;-67
2023/10/15 01:01:33;;;;;;;9.93;2.80;;;13.10;99.90;;;;;;4998708;28;20444;-68
2023/10/15 01:04:00;;;;;;;7.87;2.80;;;13.20;99.90;;;;;;4993909;28;20523;-67
2023/10/15 01:08:59;;;;;;;4.00;2.10;;;13.10;99.90;;;;;;4993320;28;20489;-67
2023/10/15 01:11:30;;;;;;;5.83;2.77;;;13.00;99.90;;;;;;4996156;28;20421;-67
2023/10/15 01:13:56;;;;;;;7.20;2.33;;;13.00;99.90;;;;;;4994337;28;20794;-68
2023/10/15 01:16:23;;;;;;;3.70;2.20;;;13.00;99.90;;;;;;4999522;28;20556;-67
2023/10/15 01:19:00;;;;;;;5.47;2.47;;;13.00;99.90;;;;;;4998167;28;20177;-68
2023/10/15 01:21:29;;;;;;;7.13;2.80;;;13.00;99.90;;;;;;4992949;28;20440;-67
2023/10/15 01:24:04;;;;;;;5.90;2.63;;;13.00;99.90;;;;;;4991540;28;20447;-68
2023/10/15 01:26:34;;;;;;;5.80;2.87;;;13.00;99.90;;;;;;4997891;28;20501;-68
2023/10/15 01:29:01;;;;;;;7.97;3.27;;;13.20;99.90;;;;;;5000617;28;20436;-68
2023/10/15 01:31:27;;;;;;;5.87;2.53;;;13.20;99.90;;;;;;4996139;28;20538;-68
2023/10/15 01:33:53;;;;;;;7.23;2.40;;;13.10;99.90;;;;;;5000661;28;20634;-68
2023/10/15 01:36:19;;;;;;;5.60;2.80;;;13.10;99.90;;;;;;5002143;28;20929;-68
2023/10/15 01:38:45;;;;;;;9.03;3.10;;;13.20;99.90;;;;;;4994204;28;20464;-68
2023/10/15 01:41:19;;;;;;;8.57;2.70;;;13.10;99.90;;;;;;4997967;28;20452;-67
2023/10/15 01:43:46;;;;;;;4.63;2.60;;;13.10;99.90;;;;;;4992672;28;20816;-68
2023/10/15 01:46:20;;;;;;;4.80;2.60;;;13.10;99.90;;;;;;5001217;28;20585;-68
2023/10/15 01:48:46;;;;;;;8.70;2.70;;;13.10;99.90;;;;;;4992822;28;20427;-67
2023/10/15 01:51:16;;;;;;;7.33;2.67;;;13.10;99.90;;;;;;4994303;28;20812;-68
2023/10/15 01:53:43;;;;;;;6.50;2.60;;;13.00;99.90;;;;;;4995266;28;20213;-68
2023/10/15 01:56:17;;;;;;;6.30;2.90;;;12.90;99.90;;;;;;4997992;28;20514;-68
2023/10/15 01:58:44;;;;;;;7.40;2.97;;;12.80;99.90;;;;;;4998006;28;20798;-68
2023/10/15 02:01:21;;;;;;;4.20;2.60;;;12.80;99.90;;;;;;4992193;28;20473;-68
2023/10/15 02:03:47;;;;;;;6.10;2.60;;;12.80;99.90;;;;;;4995405;28;20451;-68
2023/10/15 02:06:19;;;;;;;5.07;2.77;;;12.80;99.90;;;;;;4999858;28;20483;-67
2023/10/15 02:08:45;;;;;;;5.40;2.20;;;12.90;99.90;;;;;;5000503;28;20917;-68
2023/10/15 02:11:21;;;;;;;3.70;2.80;;;12.90;99.90;;;;;;5001085;28;20424;-67
2023/10/15 02:13:47;;;;;;;5.20;2.60;;;12.90;99.90;;;;;;4999928;28;20530;-67
2023/10/15 02:16:16;;;;;;;8.33;2.43;;;12.90;99.90;;;;;;4995753;28;20797;-68
2023/10/15 02:18:45;;;;;;;8.80;3.20;;;12.90;99.90;;;;;;4995477;28;20456;-68
2023/10/15 02:21:16;;;;;;;6.83;2.40;;;12.90;99.90;;;;;;4999553;28;20424;-68
2023/10/15 02:23:50;;;;;;;7.57;2.43;;;12.90;99.90;;;;;;5001249;28;20535;-68
2023/10/15 02:26:38;;;;;;;6.50;4.23;;;12.90;99.90;;;;;;5001096;28;20435;-68
2023/10/15 02:31:47;;;;;;;7.50;2.53;;;12.90;99.90;;;;;;4993252;28;21047;-68
2023/10/15 02:34:16;;;;;;;6.20;2.60;;;12.90;99.90;;;;;;4997684;28;20467;-68
2023/10/15 02:36:45;;;;;;;6.60;2.93;;;12.90;99.90;;;;;;4999523;28;20208;-68
2023/10/15 02:39:13;;;;;;;5.67;2.87;;;12.80;99.90;;;;;;4995961;28;20471;-67
2023/10/15 02:41:41;;;;;;;9.70;2.90;;;13.00;99.90;;;;;;5000089;28;20424;-67
2023/10/15 02:44:13;;;;;;;4.67;2.73;;;12.90;99.90;;;;;;4990477;28;20669;-67
2023/10/15 02:46:47;;;;;;;5.07;2.87;;;13.00;99.90;;;;;;4998920;28;20824;-67
2023/10/15 02:49:17;;;;;;;9.20;3.70;;;13.00;99.90;;;;;;4994248;28;20924;-67
2023/10/15 02:51:45;;;;;;;6.97;3.10;;;12.90;99.90;;;;;;4994617;28;20420;-67
2023/10/15 02:54:36;;;;;;;5.10;2.67;;;12.90;99.90;;;;;;4997430;28;20998;-67
2023/10/15 02:57:03;;;;;;;6.50;2.87;;;12.90;99.90;;;;;;4996298;28;20541;-67
2023/10/15 02:59:31;;;;;;;5.07;2.50;;;12.90;99.90;;;;;;4994479;28;20504;-67
2023/10/15 03:01:57;;;;;;;5.90;2.73;;;12.90;99.90;;;;;;4992889;28;20490;-67
2023/10/15 03:04:37;;;;;;;6.33;2.63;;;12.80;99.90;;;;;;4998769;28;20944;-67
2023/10/15 03:07:19;;;;;;;6.37;2.20;;;12.90;99.90;;;;;;4996585;28;20532;-67
2023/10/15 03:09:52;;;;;;;6.60;3.37;;;12.90;99.90;;;;;;4998331;28;20448;-67
2023/10/15 03:12:18;;;;;;;4.60;2.50;;;12.90;99.90;;;;;;4998111;28;20444;-67
2023/10/15 03:14:45;;;;;;;6.60;2.90;;;12.90;99.90;;;;;;4995862;28;20490;-67
2023/10/15 03:17:24;;;;;;;5.93;2.37;;;12.90;99.90;;;;;;5001189;28;20201;-67
2023/10/15 03:19:56;;;;;;;4.60;2.50;;;12.90;99.90;;;;;;5002852;28;20496;-67
2023/10/15 03:22:24;;;;;;;9.40;3.83;;;13.00;99.90;;;;;;5000450;28;20507;-68
2023/10/15 03:24:53;;;;;;;8.33;2.90;;;13.00;99.90;;;;;;4999488;28;20432;-67
2023/10/15 03:27:23;;;;;;;4.57;2.30;;;13.00;99.90;;;;;;5000435;28;20824;-66
2023/10/15 03:29:50;;;;;;;5.00;3.27;;;13.00;99.90;;;;;;5003737;28;20431;-67
2023/10/15 03:32:16;;;;;;;5.13;2.67;;;12.90;99.90;;;;;;4996682;28;21002;-68
2023/10/15 03:34:48;;;;;;;3.97;2.37;;;12.90;99.90;;;;;;5000615;28;20432;-68
2023/10/15 03:37:16;;;;;;;6.00;2.60;;;12.80;99.90;;;;;;5002030;28;20884;-67
2023/10/15 03:44:49;;;;;;;4.30;2.40;;;12.80;99.90;;;;;;4999545;28;20189;-67
2023/10/15 03:47:16;;;;;;;8.13;2.63;;;12.80;99.90;;;;;;4996795;28;20498;-68
2023/10/15 03:49:51;;;;;;;6.20;2.13;;;12.70;99.90;;;;;;4995908;28;20462;-68
2023/10/15 03:52:20;;;;;;;7.93;2.50;;;12.60;99.90;;;;;;5001167;28;20528;-67
2023/10/15 03:54:47;;;;;;;6.63;2.50;;;12.60;99.90;;;;;;4996469;28;20439;-68
2023/10/15 03:57:17;;;;;;;4.83;2.40;;;12.60;99.90;;;;;;4998556;28;20967;-68
2023/10/15 03:59:52;;;;;;;3.30;2.30;;;12.70;99.90;;;;;;4993069;28;20866;-68
2023/10/15 04:02:23;;;;;;;5.43;2.50;;;12.50;99.90;;;;;;4999215;28;20442;-68
2023/10/15 04:05:07;;;;;;;3.47;2.70;;;12.60;99.90;;;;;;4988169;28;21114;-67
2023/10/15 04:07:38;;;;;;;6.87;2.47;;;12.60;99.90;;;;;;4993158;28;20994;-67
2023/10/15 04:10:05;;;;;;;6.20;2.40;;;12.60;99.90;;;;;;4998731;28;20420;-67
2023/10/15 04:12:34;;;;;;;4.30;2.13;;;12.50;99.90;;;;;;4992322;28;20456;-67
2023/10/15 04:15:01;;;;;;;6.13;3.20;;;12.50;99.90;;;;;;4994723;28;20432;-67
2023/10/15 04:17:26;;;;;;;4.90;2.10;;;12.60;99.90;;;;;;4994734;28;20561;-67
2023/10/15 04:19:52;;;;;;;6.00;2.67;;;12.60;99.90;;;;;;4999513;28;20428;-67
2023/10/15 04:22:17;;;;;;;5.70;2.20;;;12.70;99.90;;;;;;4995690;28;20212;-68
2023/10/15 04:24:49;;;;;;;11.37;3.00;;;12.70;99.90;;;;;;4993754;28;20190;-67
2023/10/15 04:27:15;;;;;;;4.50;2.10;;;12.60;99.90;;;;;;4994835;28;20264;-67
2023/10/15 04:29:52;;;;;;;4.73;2.97;;;12.60;99.90;;;;;;4997668;28;20495;-67
2023/10/15 04:34:53;;;;;;;6.00;2.30;;;12.70;99.90;;;;;;4998847;28;20576;-67
2023/10/15 04:37:20;;;;;;;5.73;3.43;;;12.60;99.90;;;;;;5000702;28;20555;-67
2023/10/15 04:39:53;;;;;;;6.00;2.23;;;12.50;99.90;;;;;;4995996;28;20181;-67
2023/10/15 04:42:37;;;;;;;3.33;2.03;;;12.50;99.90;;;;;;4992768;28;20460;-67
2023/10/15 04:47:59;;;;;;;9.77;2.53;;;12.50;99.90;;;;;;5000237;28;20802;-67
2023/10/15 04:50:29;;;;;;;7.10;2.80;;;12.50;99.90;;;;;;4995146;28;20490;-67
2023/10/15 04:53:10;;;;;;;6.27;2.80;;;12.50;99.90;;;;;;4995579;28;20791;-67
2023/10/15 04:55:38;;;;;;;4.77;2.23;;;12.50;99.90;;;;;;4991789;28;20474;-67
2023/10/15 04:58:04;;;;;;;4.40;2.30;;;12.60;99.90;;;;;;5000758;28;20540;-67
2023/10/15 05:00:30;;;;;;;5.50;2.43;;;12.60;99.90;;;;;;4998411;28;20499;-67
2023/10/15 05:02:55;;;;;;;5.57;2.10;;;12.60;99.90;;;;;;5002960;28;20208;-67
2023/10/15 05:05:22;;;;;;;7.47;2.80;;;12.70;99.90;;;;;;5001234;28;20431;-67
2023/10/15 05:07:48;;;;;;;10.33;3.17;;;12.60;99.90;;;;;;4998989;28;20199;-67
2023/10/15 05:10:14;;;;;;;4.27;2.30;;;12.60;99.90;;;;;;5001980;28;21039;-67
2023/10/15 05:12:39;;;;;;;5.43;2.47;;;12.60;99.90;;;;;;5000843;28;20220;-67
2023/10/15 05:15:05;;;;;;;6.67;2.90;;;12.60;99.90;;;;;;4998157;28;20652;-68
2023/10/15 05:17:31;;;;;;;4.83;2.17;;;12.50;99.90;;;;;;4998640;28;20930;-67
2023/10/15 05:19:57;;;;;;;6.33;3.03;;;12.40;99.90;;;;;;4997849;28;20443;-67
2023/10/15 05:22:22;;;;;;;6.80;2.60;;;12.40;99.90;;;;;;5002730;28;20227;-67
2023/10/15 05:24:48;;;;;;;7.63;2.83;;;12.30;99.90;;;;;;4998363;28;20888;-67
2023/10/15 05:27:14;;;;;;;7.60;2.60;;;12.40;99.90;;;;;;4997386;28;20185;-67
2023/10/15 05:29:40;;;;;;;8.50;2.50;;;12.40;99.90;;;;;;4994741;28;20202;-67
2023/10/15 05:32:06;;;;;;;5.60;2.60;;;12.40;99.90;;;;;;5000229;28;20729;-67
2023/10/15 05:34:32;;;;;;;9.50;2.70;;;12.40;99.90;;;;;;5004495;28;20499;-67
2023/10/15 05:36:57;;;;;;;4.20;2.37;;;12.20;99.90;;;;;;4997611;28;20954;-67
2023/10/15 05:39:24;;;;;;;7.83;3.03;;;12.20;99.90;;;;;;5004575;28;20200;-67
2023/10/15 05:41:49;;;;;;;6.63;3.60;;;12.20;99.90;;;;;;4999760;28;20181;-67
2023/10/15 05:44:18;;;;;;;4.63;2.57;;;12.20;99.90;;;;;;5009340;28;20457;-67
2023/10/15 05:46:43;;;;;;;7.93;3.20;;;12.20;99.90;;;;;;4999310;28;20189;-67
2023/10/15 05:49:11;;;;;;;5.53;2.17;;;12.30;99.90;;;;;;4995774;28;21127;-67
2023/10/15 05:51:37;;;;;;;7.10;2.40;;;12.30;99.90;;;;;;4995884;28;20273;-67
2023/10/15 05:54:04;;;;;;;7.27;2.33;;;12.40;99.90;;;;;;4999911;28;20444;-67
2023/10/15 05:56:30;;;;;;;7.47;3.27;;;12.30;99.90;;;;;;4993154;28;20459;-67
2023/10/15 05:58:57;;;;;;;5.13;2.97;;;12.40;99.90;;;;;;4996809;28;20432;-67
2023/10/15 06:01:23;;;;;;;5.00;2.60;;;12.40;99.90;;;;;;4995000;28;20535;-67
2023/10/15 06:03:48;;;;;;;10.47;3.13;;;12.40;99.90;;;;;;4991948;28;20444;-68
2023/10/15 06:06:15;;;;;;;7.70;3.63;;;12.30;99.90;;;;;;4994012;28;21107;-67
2023/10/15 06:08:41;;;;;;;8.03;3.53;;;12.20;99.90;;;;;;4993718;28;20189;-67
2023/10/15 06:11:06;;;;;;;8.53;3.60;;;12.10;99.90;;;;;;4998737;28;20413;-67
2023/10/15 06:13:32;;;;;;;8.47;4.03;;;12.00;99.90;;;;;;4996187;28;20224;-67
2023/10/15 06:16:00;;;;;;;6.43;3.53;;;11.90;99.90;;;;;;4999464;28;20194;-67
2023/10/15 06:18:25;;;;;;;7.93;3.53;;;11.90;99.90;;;;;;4993386;28;20630;-67
2023/10/15 06:20:51;;;;;;;8.03;3.70;;;11.80;99.90;;;;;;5000409;28;20417;-67
2023/10/15 06:23:18;;;;;;;11.03;3.50;;;11.80;99.90;;;;;;5000068;28;20213;-67
2023/10/15 06:25:43;;;;;;;10.53;3.63;;;11.80;99.90;;;;;;4994448;28;20625;-67
2023/10/15 06:28:13;;;;;;;7.90;3.67;;;11.80;99.90;;;;;;4997883;28;20449;-67
2023/10/15 06:30:40;;;;;;;6.47;3.43;;;11.70;99.90;;;;;;4995001;28;20178;-67
2023/10/15 06:33:06;;;;;;;5.60;3.17;;;11.60;99.90;;;;;;4994754;28;20456;-68
2023/10/15 06:35:32;;;;;;;12.10;3.30;;;11.60;99.90;;;;;;5004841;28;20427;-68
2023/10/15 06:37:57;;;;;;;5.53;3.60;;;11.50;99.90;;;;;;4994827;28;20212;-68
2023/10/15 06:40:24;;;;;;;10.40;3.97;;;11.60;99.90;;;;;;4994688;28;20494;-69
2023/10/15 06:42:51;;;;;;;7.87;3.60;;;11.50;99.90;;;;;;4993267;28;20570;-68
2023/10/15 06:45:20;;;;;;;7.30;3.40;;;11.50;99.90;;;;;;4994671;28;20443;-68
2023/10/15 06:47:47;;;;;;;6.43;2.80;;;11.60;99.90;;;;;;4994497;28;20629;-68
2023/10/15 06:50:14;;;;;;;8.13;3.37;;;11.50;99.90;;;;;;4997121;28;20432;-68
2023/10/15 06:52:42;;;;;;;6.50;3.80;;;11.60;99.90;;;;;;4996303;28;20456;-68
2023/10/15 06:55:10;;;;;;;6.77;2.97;;;11.60;99.90;;;;;;4995150;28;20439;-68
2023/10/15 06:57:40;;;;;;;7.57;3.43;;;11.50;99.90;;;;;;4992127;28;20452;-68
2023/10/15 07:00:07;;;;;;;5.60;2.90;;;11.50;99.90;;;;;;4993347;28;20468;-68
2023/10/15 07:02:32;;;;;;;5.80;3.00;;;11.60;99.90;;;;;;4991535;28;21096;-68
2023/10/15 07:05:00;;;;;;;12.90;3.27;;;11.60;99.90;;;;;;4995605;28;20503;-68
2023/10/15 07:07:26;;;;;;;8.20;3.60;;;11.60;99.90;;;;;;4996405;28;20292;-68
2023/10/15 07:09:52;;;;;;;5.23;2.90;;;11.60;99.90;;;;;;4996353;28;20943;-67
2023/10/15 07:12:18;;;;;;;6.80;3.43;;;11.60;99.90;;;;;;4988907;28;20798;-67
2023/10/15 07:14:43;;;;;;;5.93;2.53;;;11.70;99.90;;;;;;4993649;28;20174;-68
2023/10/15 07:17:09;;;;;;;6.50;3.27;;;11.70;99.90;;;;;;4994559;28;20263;-68
2023/10/15 07:19:35;;;;;;;6.90;2.70;;;11.70;99.90;;;;;;4998046;28;20610;-68
2023/10/15 07:22:01;;;;;;;6.70;2.67;;;11.70;99.90;;;;;;4996995;28;20448;-68
2023/10/15 07:24:27;;;;;;;5.87;2.70;;;11.70;99.90;;;;;;4998449;28;20593;-68
2023/10/15 07:26:53;;;;;;;7.93;3.20;;;11.80;99.90;;;;;;4999415;28;20181;-68
2023/10/15 07:29:18;;;;;;;5.40;2.70;;;11.80;99.90;;;;;;5003559;28;20826;-69
2023/10/15 07:31:45;;;;;;;13.93;3.80;;;11.70;99.90;;;;;;4998381;28;20200;-68
2023/10/15 07:34:11;;;;;;;6.90;3.40;;;11.80;99.90;;;;;;5001491;28;20708;-68
2023/10/15 07:36:36;;;;;;;10.07;3.73;;;11.80;99.90;;;;;;5001061;28;20460;-68
2023/10/15 07:39:06;;;;;;;7.80;3.10;;;11.80;99.90;;;;;;4996402;28;20186;-68
2023/10/15 07:41:34;;;;;;;5.67;3.20;;;11.80;99.90;;;;;;5003770;28;20219;-68
2023/10/15 07:44:01;;;;;;;6.03;3.17;;;11.80;99.90;;;;;;4999611;28;20436;-68
2023/10/15 07:46:28;;;;;;;4.57;2.73;;;11.70;99.90;;;;;;5006105;28;20423;-68
2023/10/15 07:48:57;;;;;;;10.00;3.00;;;11.80;99.90;;;;;;4995114;28;20437;-68
2023/10/15 07:51:23;;;;;;;7.53;2.90;;;11.80;99.90;;;;;;4988870;28;20798;-68
2023/10/15 07:53:49;;;;;;;4.87;2.70;;;11.90;99.90;;;;;;4994473;28;20483;-69
2023/10/15 07:56:14;;;;;;;6.77;2.80;;;11.80;99.90;;;;;;4993440;28;20473;-68
2023/10/15 07:58:40;;;;;;;6.23;2.70;;;11.90;99.90;;;;;;4991299;28;20571;-69
2023/10/15 08:01:06;;;;;;;5.00;3.00;;;12.00;99.90;;;;;;4998312;28;20293;-68
2023/10/15 08:03:32;;;;;;;5.10;2.57;;;11.90;99.90;;;;;;4994210;28;20518;-68
2023/10/15 08:06:01;;;;;;;7.17;2.77;;;12.00;99.90;;;;;;4996658;28;20448;-68
2023/10/15 08:08:27;;;;;;;3.50;2.37;;;12.10;99.90;;;;;;4995782;28;20185;-69
2023/10/15 08:10:52;;;;;;;6.77;2.63;;;12.10;99.90;;;;;;4996064;28;20421;-68
2023/10/15 08:13:18;;;;;;;6.63;3.30;;;12.20;99.90;;;;;;5007343;28;20451;-68
2023/10/15 08:15:44;;;;;;;4.87;2.70;;;12.30;99.90;;;;;;5005621;28;20646;-68
2023/10/15 08:18:10;;;;;;;7.40;2.87;;;12.30;99.90;;;;;;5000055;28;20468;-68
2023/10/15 08:20:35;;;;;;;8.27;2.43;;;12.30;99.90;;;;;;5009306;28;20707;-68
2023/10/15 08:23:01;;;;;;;6.30;2.70;;;12.30;99.90;;;;;;5006665;28;20197;-68
2023/10/15 08:25:27;;;;;;;4.50;2.37;;;12.40;99.90;;;;;;5010597;28;20248;-68
2023/10/15 08:27:52;;;;;;;6.67;2.73;;;12.30;99.90;;;;;;5003700;28;20419;-68
2023/10/15 08:30:18;;;;;;;5.00;2.40;;;12.40;99.90;;;;;;5020533;28;20575;-68
2023/10/15 08:32:45;;;;;;;4.50;2.00;;;12.30;99.90;;;;;;5006272;28;20204;-68
2023/10/15 08:35:13;;;;;;;6.77;2.53;;;12.50;99.90;;;;;;4998919;28;20586;-68
2023/10/15 08:37:39;;;;;;;5.67;3.10;;;12.60;99.90;;;;;;5003001;28;20561;-68
2023/10/15 08:40:06;;;;;;;4.43;2.27;;;12.60;99.90;;;;;;5000263;28;20440;-68
2023/10/15 08:42:42;;;;;;;4.17;2.47;;;12.70;99.90;;;;;;5004828;28;20460;-68
2023/10/15 08:45:08;;;;;;;6.03;2.20;;;12.60;99.90;;;;;;5000241;28;20486;-68
2023/10/15 08:47:35;;;;;;;9.73;3.77;;;12.70;99.90;;;;;;5005981;28;20450;-68
2023/10/15 08:50:01;;;;;;;5.50;2.40;;;12.70;99.90;;;;;;5009200;28;20539;-68
2023/10/15 08:52:27;;;;;;;5.47;2.43;;;12.70;99.90;;;;;;5005414;28;21010;-68
2023/10/15 08:54:54;;;;;;;6.23;2.03;;;12.80;99.90;;;;;;5000499;28;20428;-68
2023/10/15 08:57:21;;;;;;;9.93;2.40;;;12.90;99.90;;;;;;4997153;28;20463;-68
2023/10/15 08:59:49;;;;;;;8.03;2.70;;;12.90;99.90;;;;;;4997566;28;20428;-68
2023/10/15 09:02:15;;;;;;;4.00;2.13;;;12.90;99.90;;;;;;4996864;28;20443;-68
2023/10/15 09:04:44;;;;;;;7.00;3.80;;;12.80;99.90;;;;;;4997998;28;20897;-68
2023/10/15 09:07:12;;;;;;;5.60;2.30;;;13.00;99.90;;;;;;4994691;28;20448;-68
2023/10/15 09:09:38;;;;;;;3.60;2.37;;;13.00;99.90;;;;;;5000440;28;20433;-68
2023/10/15 09:12:06;;;;;;;9.83;2.80;;;13.00;99.90;;;;;;5000706;28;20541;-68
2023/10/15 09:14:45;;;;;;;7.57;2.37;;;13.00;99.90;;;;;;5010912;28;20435;-68
2023/10/15 09:17:15;;;;;;;4.60;2.40;;;13.00;99.90;;;;;;5001296;28;20594;-68
2023/10/15 09:19:48;;;;;;;5.20;2.20;;;13.10;99.90;;;;;;4992310;28;20436;-68
2023/10/15 09:22:14;;;;;;;3.20;2.17;;;13.20;99.90;;;;;;4991654;28;20467;-68
2023/10/15 09:24:41;;;;;;;10.50;2.13;;;13.20;99.90;;;;;;4991257;28;20436;-68
2023/10/15 09:27:07;;;;;;;3.90;1.83;;;13.40;99.90;;;;;;4988796;28;20193;-68
2023/10/15 09:29:32;;;;;;;5.23;2.20;;;13.50;99.90;;;;;;4990977;28;20713;-68
2023/10/15 09:32:02;;;;;;;3.70;2.00;;;13.50;99.90;;;;;;4990362;28;20200;-65
2023/10/15 09:34:31;;;;;;;6.93;2.37;;;13.30;99.90;;;;;;4993891;28;20189;-65
2023/10/15 09:36:58;;;;;;;7.37;2.80;;;13.20;99.90;;;;;;4998876;28;20476;-64
2023/10/15 09:39:28;;;;;;;5.37;2.40;;;13.10;99.90;;;;;;4987341;28;20799;-65
2023/10/15 09:41:55;;;;;;;4.57;2.50;;;13.20;99.90;;;;;;4987860;28;20539;-63
2023/10/15 09:44:21;;;;;;;5.77;2.67;;;13.20;99.90;;;;;;4994926;28;20486;-64
2023/10/15 09:46:47;;;;;;;7.70;2.40;;;13.30;99.90;;;;;;5001671;28;20519;-64
2023/10/15 09:49:13;;;;;;;5.77;2.80;;;13.30;99.90;;;;;;5002313;28;20194;-65
2023/10/15 09:51:40;;;;;;;5.80;2.53;;;13.40;99.90;;;;;;5003710;28;20519;-64
2023/10/15 09:54:14;;;;;;;5.90;2.40;;;13.40;99.90;;;;;;5000754;28;20783;-65
2023/10/15 09:56:41;;;;;;;6.80;2.30;;;13.40;99.90;;;;;;5003088;28;20471;-64
2023/10/15 09:59:10;;;;;;;4.70;2.20;;;13.40;99.90;;;;;;5001449;28;20439;-64
2023/10/15 10:01:47;;;;;;;6.00;2.30;;;13.30;99.90;;;;;;5002949;28;20423;-65
2023/10/15 10:04:26;;;;;;;3.13;1.63;;;13.30;99.90;;;;;;5000262;28;20511;-62
2023/10/15 10:07:38;;;;;;;4.53;2.43;;;13.40;99.90;;;;;;5001517;28;20458;-62
2023/10/15 10:10:12;;;;;;;7.40;2.97;;;13.30;99.90;;;;;;5004914;28;20428;-62
2023/10/15 10:13:02;;;;;;;4.93;2.30;;;13.40;99.90;;;;;;5000406;28;20459;-63
2023/10/15 10:15:52;;;;;;;4.47;2.13;;;13.30;99.90;;;;;;5018704;28;21005;-64
2023/10/15 10:18:18;;;;;;;4.53;2.10;;;13.40;99.90;;;;;;5000320;28;20479;-63
2023/10/15 10:20:48;;;;;;;5.17;2.00;;;13.60;99.90;;;;;;5001221;28;20409;-63
2023/10/15 10:23:14;;;;;;;3.93;2.33;;;13.70;99.90;;;;;;5007694;28;20505;-64
2023/10/15 10:25:46;;;;;;;5.03;2.20;;;13.70;99.90;;;;;;5000203;28;20554;-65
2023/10/15 10:28:17;;;;;;;5.43;3.20;;;13.80;99.90;;;;;;5003494;28;20870;-62
2023/10/15 10:30:58;;;;;;;4.40;2.70;;;14.00;99.90;;;;;;5003100;28;20432;-63
2023/10/15 10:33:42;;;;;;;4.53;2.20;;;14.20;99.90;;;;;;5004766;28;20561;-65
2023/10/15 10:36:12;;;;;;;3.57;2.10;;;14.30;99.90;;;;;;5004294;28;20449;-64
2023/10/15 10:38:41;;;;;;;2.47;2.00;;;14.40;99.90;;;;;;5002968;28;20444;-64
2023/10/15 10:41:14;;;;;;;4.90;1.87;;;14.50;99.90;;;;;;5004903;28;20406;-64
2023/10/15 10:43:43;;;;;;;3.10;2.40;;;14.30;99.90;;;;;;5000587;28;20439;-64
2023/10/15 10:46:22;;;;;;;5.57;3.03;;;14.10;99.90;;;;;;5002460;28;20442;-63
2023/10/15 10:49:03;;;;;;;5.43;2.60;;;14.10;99.90;;;;;;5004034;28;20416;-64
2023/10/15 10:51:30;;;;;;;6.10;2.90;;;14.20;99.90;;;;;;5006487;28;20437;-66
2023/10/15 10:53:56;;;;;;;5.87;3.53;;;14.20;99.90;;;;;;5000715;28;20447;-67
2023/10/15 10:56:44;;;;;;;5.63;2.10;;;14.10;99.90;;;;;;5003765;28;20982;-67
2023/10/15 10:59:14;;;;;;;4.00;2.40;;;14.20;99.90;;;;;;5003213;28;20192;-67
2023/10/15 11:01:45;;;;;;;3.80;2.40;;;14.20;99.90;;;;;;5005045;28;21096;-66
2023/10/15 11:04:15;;;;;;;6.57;3.20;;;14.40;99.90;;;;;;5001212;28;20447;-68
2023/10/15 11:06:45;;;;;;;4.63;2.07;;;14.50;99.90;;;;;;5003849;28;21272;-68
2023/10/15 11:09:20;;;;;;;2.73;2.10;;;14.50;99.90;;;;;;5002634;28;20526;-67
2023/10/15 11:11:47;;;;;;;4.00;2.27;;;14.60;99.90;;;;;;4998413;28;20426;-67
2023/10/15 11:14:17;;;;;;;4.83;2.60;;;14.70;99.90;;;;;;4998942;28;20443;-67
2023/10/15 11:16:43;;;;;;;3.30;2.07;;;14.80;99.90;;;;;;5001847;28;20447;-67
2023/10/15 11:19:19;;;;;;;4.47;2.90;;;14.80;99.90;;;;;;4999982;28;20543;-67
2023/10/15 11:21:47;;;;;;;4.10;1.90;;;14.80;99.90;;;;;;4995011;28;20839;-67
2023/10/15 11:24:13;;;;;;;3.80;2.33;;;14.90;99.90;;;;;;4994983;28;20519;-67
2023/10/15 11:26:43;;;;;;;3.60;3.00;;;14.80;99.50;;;;;;4992787;28;20507;-67
2023/10/15 11:29:12;;;;;;;2.80;2.00;;;14.60;99.90;;;;;;4997224;28;20451;-67
2023/10/15 11:31:42;;;;;;;6.13;2.40;;;14.50;99.90;;;;;;4995812;28;20432;-67
2023/10/15 11:34:12;;;;;;;5.37;2.00;;;14.50;99.90;;;;;;4996279;28;20464;-67
2023/10/15 11:36:39;;;;;;;4.20;2.30;;;14.60;99.90;;;;;;5001654;28;20554;-67
2023/10/15 11:39:27;;;;;;;5.97;2.43;;;14.90;99.90;;;;;;5000875;28;20520;-67
2023/10/15 11:41:56;;;;;;;4.00;2.23;;;15.30;99.90;;;;;;4996226;28;20416;-68
2023/10/15 11:44:26;;;;;;;4.17;2.10;;;15.90;99.20;;;;;;5001070;28;20428;-68
2023/10/15 11:46:55;;;;;;;5.73;2.50;;;16.60;97.30;;;;;;4996016;28;20436;-68
2023/10/15 11:49:26;;;;;;;3.03;2.37;;;17.10;94.50;;;;;;4999181;28;20941;-68
2023/10/15 11:51:55;;;;;;;4.93;2.47;;;16.80;93.80;;;;;;4999865;28;20432;-67
2023/10/15 11:54:32;;;;;;;2.63;2.23;;;16.50;94.20;;;;;;4996879;28;20581;-67
2023/10/15 11:57:05;;;;;;;5.40;2.63;;;16.20;94.30;;;;;;4993329;28;20460;-67
2023/10/15 11:59:31;;;;;;;3.20;2.17;;;16.30;94.00;;;;;;4995635;28;20417;-68
2023/10/15 12:02:00;;;;;;;3.60;2.00;;;15.90;93.60;;;;;;4999601;28;20433;-68
2023/10/15 12:04:26;;;;;;;3.20;2.23;;;15.80;92.10;;;;;;4998499;28;20429;-68
2023/10/15 12:06:52;;;;;;;2.87;1.83;;;16.80;92.40;;;;;;5002255;28;20448;-68
2023/10/15 12:09:24;;;;;;;3.50;2.20;;;18.80;90.60;;;;;;4999424;28;20500;-68
2023/10/15 12:11:51;;;;;;;5.03;2.50;;;20.10;81.80;;;;;;4996284;28;20535;-68
2023/10/15 12:14:17;;;;;;;7.20;2.50;;;21.60;76.30;;;;;;4993711;28;20463;-68
2023/10/15 12:16:44;;;;;;;3.90;2.20;;;22.20;67.50;;;;;;4996648;28;21052;-68
2023/10/15 12:19:10;;;;;;;4.03;2.47;;;22.80;64.20;;;;;;4999844;28;20429;-68
2023/10/15 12:21:39;;;;;;;2.67;2.00;;;24.00;63.00;;;;;;5003595;28;20887;-68
2023/10/15 12:24:05;;;;;;;3.50;2.30;;;26.20;58.40;;;;;;4996357;28;20437;-68
2023/10/15 12:26:32;;;;;;;2.80;2.00;;;26.00;47.90;;;;;;4995091;28;20521;-68
2023/10/15 12:28:58;;;;;;;3.63;2.20;;;26.00;48.40;;;;;;4995968;28;20444;-68
2023/10/15 12:31:24;;;;;;;2.93;2.07;;;26.50;48.90;;;;;;5002553;28;20431;-68
2023/10/15 12:33:50;;;;;;;2.77;2.30;;;26.20;45.50;;;;;;4997140;28;20212;-68
2023/10/15 12:36:15;;;;;;;3.33;2.30;;;27.10;46.80;;;;;;5003152;28;20442;-68
2023/10/15 12:38:43;;;;;;;4.13;2.07;;;28.30;45.80;;;;;;4999040;28;20198;-68
2023/10/15 12:41:09;;;;;;;5.00;3.33;;;29.70;42.00;;;;;;4998510;28;20640;-68
2023/10/15 12:43:36;;;;;;;3.53;2.20;;;29.40;41.30;;;;;;5010480;28;20461;-68
2023/10/15 12:46:03;;;;;;;3.10;2.40;;;28.80;40.40;;;;;;4993197;28;20721;-67
2023/10/15 12:48:29;;;;;;;4.73;2.63;;;28.30;40.90;;;;;;4993645;28;20424;-67
2023/10/15 12:50:56;;;;;;;3.90;2.40;;;28.20;42.00;;;;;;4996949;28;20435;-67
2023/10/15 12:53:23;;;;;;;3.20;2.10;;;29.10;39.00;;;;;;4998615;28;20551;-68
2023/10/15 12:55:49;;;;;;;3.37;2.30;;;27.40;39.90;;;;;;4998388;28;20769;-68
2023/10/15 12:58:15;;;;;;;3.53;2.27;;;27.10;39.90;;;;;;4996061;28;20477;-68
2023/10/15 13:00:43;;;;;;;3.03;2.20;;;25.80;40.60;;;;;;4991549;28;20259;-67
2023/10/15 13:03:10;;;;;;;3.00;2.30;;;24.10;42.10;;;;;;4997170;28;20446;-68
2023/10/15 13:05:35;;;;;;;4.53;2.17;;;22.20;43.50;;;;;;4991108;28;20434;-68
2023/10/15 13:08:01;;;;;;;4.03;2.70;;;21.10;45.40;;;;;;4995929;28;20444;-68
2023/10/15 13:10:27;;;;;;;2.97;2.17;;;20.20;47.70;;;;;;5000769;28;20220;-68
2023/10/15 13:12:54;;;;;;;2.87;2.00;;;18.90;50.10;;;;;;4992392;28;20537;-68